Main page
METAR-TAF:

METAR-TAF

Airports :

Karlsruhe/Baden-Baden Airport

Baden-Baden, Germany

latitude: 48-46-43N, longitude: 008-04-47E, elevation: 124 m

Current weather observation

The report was made 22 minutes ago, at 21:50 UTC
Wind 6 kt from the North/Northeast
Temperature 19°C
Humidity 49%
Pressure 1020 hPa
Visibility 10 km or more
no clouds below 1500 m and no cumulonimbus

METAR: EDSB 072150Z 03006KT CAVOK 19/08 Q1020

Time: 00:12 (22:12 UTC)

Forecast

The report was made 5 hours and 12 minutes ago, at 17:00 UTC
Forecast valid from 07 at 18 UTC to 08 at 18 UTC
Wind 10 kt from the North/Northeast
Visibility 10 km or more
no clouds below 1500 m and no cumulonimbus
Becoming
from 07 at 18 UTC to 07 at 20 UTC
Wind 5 kt from the North/Northeast
Becoming
from 08 at 05 UTC to 08 at 08 UTC
Wind 12 kt from the North/Northeast

TAF: EDSB 071700Z 0718/0818 02010KT CAVOK BECMG 0718/0720 03005KT BECMG 0805/0808 02012KT

Weather observations and forecasts of more than 4000 airports (METAR and TAF reports).

The available stations are represented by yellow and red dots on the map.

Hover mouse over dot to see the name of the station.

Then click to see weather observations and forecasts.

To change the map : click on the green buttons with a black cross to zoom in, on the green button with a dash to zoom out, or on the green arrows for adjacent maps.


METAR-TAF: